createdAt,value
2023-03-06T00:00:38.929Z,89.62
2023-03-06T00:03:17.853Z,89.72
2023-03-06T00:05:45.477Z,90.05
2023-03-06T00:08:13.102Z,89.99
2023-03-06T00:10:40.783Z,89.89
2023-03-06T00:13:13.250Z,89.90
2023-03-06T00:15:41.544Z,89.67
2023-03-06T00:18:09.506Z,89.58
2023-03-06T00:20:39.731Z,89.65
2023-03-06T00:23:08.560Z,89.46
2023-03-06T00:25:36.374Z,89.17
2023-03-06T00:28:05.067Z,89.23
2023-03-06T00:30:32.748Z,89.26
2023-03-06T00:33:00.310Z,89.22
2023-03-06T00:35:27.954Z,89.29
2023-03-06T00:37:55.513Z,89.45
2023-03-06T00:40:23.173Z,89.54
2023-03-06T00:42:50.765Z,89.79
2023-03-06T00:45:18.362Z,89.84
2023-03-06T00:47:45.965Z,89.95
2023-03-06T00:50:13.513Z,90.25
2023-03-06T00:52:41.092Z,90.80
2023-03-06T00:55:09.925Z,90.89
2023-03-06T00:57:37.833Z,90.50
2023-03-06T01:00:06.271Z,90.78
2023-03-06T01:02:34.065Z,90.85
2023-03-06T01:05:02.214Z,90.88
2023-03-06T01:07:29.755Z,90.74
2023-03-06T01:09:57.235Z,90.91
2023-03-06T01:12:24.880Z,90.76
2023-03-06T01:14:52.457Z,90.58
2023-03-06T01:17:20.062Z,90.47
2023-03-06T01:19:47.655Z,90.62
2023-03-06T01:22:15.179Z,90.99
2023-03-06T01:24:42.829Z,90.98
2023-03-06T01:27:10.433Z,91.04
2023-03-06T01:29:38.005Z,90.85
2023-03-06T01:32:05.909Z,90.80
2023-03-06T01:34:33.570Z,90.85
2023-03-06T01:37:01.112Z,90.86
2023-03-06T01:39:28.670Z,90.80
2023-03-06T01:41:56.219Z,90.65
2023-03-06T01:44:23.917Z,90.70
2023-03-06T01:46:51.470Z,90.88
2023-03-06T01:49:22.008Z,90.81
2023-03-06T01:51:49.468Z,90.85
2023-03-06T01:54:28.526Z,90.83
2023-03-06T01:57:02.166Z,90.59
2023-03-06T01:59:30.364Z,90.18
2023-03-06T02:01:59.724Z,90.25
2023-03-06T02:04:28.222Z,90.30
2023-03-06T02:06:58.480Z,90.26
2023-03-06T02:09:27.146Z,90.37
2023-03-06T02:11:54.710Z,90.73
2023-03-06T02:14:22.457Z,90.81
2023-03-06T02:16:51.101Z,90.98
2023-03-06T02:19:30.262Z,91.37
2023-03-06T02:21:57.883Z,91.64
2023-03-06T02:24:45.563Z,91.50
2023-03-06T02:27:14.649Z,91.56
2023-03-06T02:29:43.898Z,91.51
2023-03-06T02:32:11.587Z,91.42
2023-03-06T02:34:39.115Z,91.41
2023-03-06T02:37:11.099Z,91.40
2023-03-06T02:39:43.155Z,91.24
2023-03-06T02:42:17.284Z,91.17
2023-03-06T02:44:45.312Z,91.21
2023-03-06T02:47:12.870Z,91.33
2023-03-06T02:49:40.422Z,91.48
2023-03-06T02:52:08.081Z,91.57
2023-03-06T02:54:35.616Z,91.96
2023-03-06T02:57:03.270Z,92.28
2023-03-06T02:59:30.872Z,92.22
2023-03-06T03:01:58.595Z,92.34
2023-03-06T03:04:26.352Z,92.14
2023-03-06T03:06:53.962Z,92.20
2023-03-06T03:09:21.538Z,92.11
2023-03-06T03:11:49.047Z,92.04
2023-03-06T03:14:16.607Z,92.04
2023-03-06T03:16:44.260Z,91.95
2023-03-06T03:19:11.830Z,91.75
2023-03-06T03:21:40.854Z,91.79
2023-03-06T03:24:08.497Z,91.79
2023-03-06T03:26:36.063Z,91.72
2023-03-06T03:29:04.144Z,91.75
2023-03-06T03:31:32.644Z,91.54
2023-03-06T03:34:00.288Z,91.62
2023-03-06T03:36:28.264Z,91.57
2023-03-06T03:38:55.796Z,91.68
2023-03-06T03:41:23.683Z,91.48
2023-03-06T03:43:51.241Z,91.44
2023-03-06T03:46:18.846Z,91.50
2023-03-06T03:48:46.461Z,91.64
2023-03-06T03:51:14.461Z,91.64
2023-03-06T03:53:42.996Z,91.63
2023-03-06T03:56:11.344Z,91.47
2023-03-06T03:58:38.937Z,91.28
2023-03-06T04:01:06.924Z,91.23
2023-03-06T04:03:34.653Z,91.32
2023-03-06T04:06:02.375Z,91.17
2023-03-06T04:08:29.888Z,91.13
2023-03-06T04:10:57.489Z,91.05
2023-03-06T04:13:25.168Z,90.87
2023-03-06T04:15:54.198Z,90.97
2023-03-06T04:18:22.645Z,90.89
2023-03-06T04:20:50.533Z,90.80
2023-03-06T04:23:18.786Z,90.91
2023-03-06T04:25:46.462Z,91.07
2023-03-06T04:28:14.357Z,90.95
2023-03-06T04:30:42.174Z,91.04
2023-03-06T04:33:09.952Z,91.17
2023-03-06T04:35:37.666Z,91.05
2023-03-06T04:38:05.644Z,90.64
2023-03-06T04:40:35.280Z,90.23
2023-03-06T04:43:04.164Z,90.31
2023-03-06T04:45:34.442Z,90.36
2023-03-06T04:48:02.309Z,90.07
2023-03-06T04:50:30.442Z,90.11
2023-03-06T04:53:02.608Z,90.18
2023-03-06T04:55:30.545Z,90.23
2023-03-06T04:57:58.254Z,90.31
2023-03-06T05:00:27.515Z,90.58
2023-03-06T05:02:55.084Z,90.81
2023-03-06T05:05:22.770Z,90.93
2023-03-06T05:07:50.365Z,91.04
2023-03-06T05:10:19.147Z,91.24
2023-03-06T05:12:46.697Z,91.33
2023-03-06T05:15:14.723Z,91.21
2023-03-06T05:17:42.467Z,91.03
2023-03-06T05:20:12.136Z,90.96
2023-03-06T05:22:40.099Z,91.40
2023-03-06T05:25:08.316Z,91.88
2023-03-06T05:27:36.293Z,92.24
2023-03-06T05:30:04.780Z,92.09
2023-03-06T05:32:34.462Z,92.26
2023-03-06T05:35:04.381Z,92.25
2023-03-06T05:37:32.593Z,92.28
2023-03-06T05:40:00.337Z,92.20
2023-03-06T05:42:31.002Z,92.03
2023-03-06T05:44:58.608Z,92.21
2023-03-06T05:47:26.163Z,92.32
2023-03-06T05:49:53.654Z,92.15
2023-03-06T05:52:21.291Z,92.18
2023-03-06T05:54:53.934Z,91.99
2023-03-06T05:57:22.991Z,91.74
2023-03-06T05:59:51.128Z,91.34
2023-03-06T06:02:18.961Z,90.94
2023-03-06T06:04:46.658Z,90.77
2023-03-06T06:07:15.699Z,90.52
2023-03-06T06:09:44.563Z,90.23
2023-03-06T06:12:13.248Z,89.80
2023-03-06T06:14:40.880Z,89.50
2023-03-06T06:17:08.468Z,89.02
2023-03-06T06:19:36.062Z,88.65
2023-03-06T06:22:03.720Z,88.45
2023-03-06T06:24:31.957Z,88.06
2023-03-06T06:27:02.012Z,87.62
2023-03-06T06:29:32.148Z,87.33
2023-03-06T06:32:00.553Z,87.02
2023-03-06T06:34:28.606Z,86.40
2023-03-06T06:36:56.176Z,86.34
2023-03-06T06:39:24.892Z,86.09
2023-03-06T06:42:14.678Z,85.76
2023-03-06T06:44:40.007Z,85.37
2023-03-06T06:47:25.406Z,85.34
2023-03-06T06:49:55.403Z,85.23
2023-03-06T06:52:26.228Z,85.22
2023-03-06T06:54:53.877Z,85.02
2023-03-06T06:57:21.489Z,85.02
2023-03-06T06:59:50.203Z,85.04
2023-03-06T07:02:19.263Z,84.76
2023-03-06T07:05:02.516Z,84.15
2023-03-06T07:07:34.702Z,83.84
2023-03-06T07:10:11.117Z,82.86
2023-03-06T07:12:38.674Z,82.69
2023-03-06T07:15:06.886Z,82.26
2023-03-06T07:17:34.675Z,82.15
2023-03-06T07:20:02.387Z,81.72
2023-03-06T07:22:33.862Z,81.71
2023-03-06T07:25:09.597Z,81.46
2023-03-06T07:27:37.298Z,81.07
2023-03-06T07:30:05.891Z,80.20
2023-03-06T07:32:33.543Z,80.27
2023-03-06T07:35:19.036Z,80.07
2023-03-06T07:37:47.569Z,79.46
2023-03-06T07:40:15.284Z,78.87
2023-03-06T07:42:43.314Z,79.06
2023-03-06T07:45:11.971Z,78.63
2023-03-06T07:47:40.492Z,76.62
2023-03-06T07:50:08.939Z,76.84
2023-03-06T07:52:36.557Z,76.93
2023-03-06T07:55:04.442Z,76.59
2023-03-06T07:57:32.001Z,76.36
2023-03-06T07:59:59.551Z,75.55
2023-03-06T08:02:27.142Z,75.27
2023-03-06T08:04:55.611Z,75.88
2023-03-06T08:07:23.861Z,75.65
2023-03-06T08:09:51.385Z,75.87
2023-03-06T08:12:18.943Z,75.57
2023-03-06T08:14:46.516Z,75.89
2023-03-06T08:17:14.215Z,75.83
2023-03-06T08:19:41.784Z,75.37
2023-03-06T08:22:09.378Z,75.56
2023-03-06T08:24:37.062Z,75.78
2023-03-06T08:27:04.681Z,75.38
2023-03-06T08:29:32.427Z,75.40
2023-03-06T08:32:00.009Z,75.00
2023-03-06T08:34:27.729Z,74.99
2023-03-06T08:36:55.281Z,74.67
2023-03-06T08:39:22.844Z,74.35
2023-03-06T08:41:50.446Z,74.09
2023-03-06T08:44:18.027Z,73.67
2023-03-06T08:46:45.649Z,73.47
2023-03-06T08:49:13.776Z,72.84
2023-03-06T08:51:41.474Z,72.62
2023-03-06T08:54:12.452Z,72.55
2023-03-06T08:56:40.066Z,72.07
2023-03-06T08:59:07.612Z,71.77
2023-03-06T09:01:37.554Z,72.26
2023-03-06T09:04:08.680Z,72.37
2023-03-06T09:06:40.267Z,71.23
2023-03-06T09:09:08.838Z,71.25
2023-03-06T09:11:36.935Z,71.34
2023-03-06T09:14:05.715Z,71.77
2023-03-06T09:16:33.459Z,71.15
2023-03-06T09:19:01.127Z,70.57
2023-03-06T09:21:28.795Z,70.90
2023-03-06T09:23:56.568Z,70.06
2023-03-06T09:26:32.833Z,70.58
2023-03-06T09:29:07.736Z,69.49
2023-03-06T09:31:35.276Z,69.69
2023-03-06T09:34:02.911Z,70.35
2023-03-06T09:36:30.533Z,69.40
2023-03-06T09:38:58.091Z,67.93
2023-03-06T09:41:35.507Z,68.36
2023-03-06T09:44:16.068Z,66.27
2023-03-06T09:46:59.140Z,66.10
2023-03-06T09:49:44.602Z,67.60
2023-03-06T09:52:49.069Z,65.52
2023-03-06T09:55:20.397Z,65.10
2023-03-06T09:58:25.036Z,64.94
2023-03-06T10:00:59.688Z,65.30
2023-03-06T10:03:30.274Z,64.95
2023-03-06T10:06:33.177Z,65.83
2023-03-06T10:09:06.681Z,64.76
2023-03-06T10:11:37.933Z,64.33
2023-03-06T10:14:28.381Z,63.72
2023-03-06T10:16:55.989Z,63.70
2023-03-06T10:19:30.612Z,62.09
2023-03-06T10:22:44.785Z,61.29
2023-03-06T10:25:20.012Z,59.97
2023-03-06T10:27:58.068Z,59.38
2023-03-06T10:30:48.014Z,58.26
2023-03-06T10:33:45.899Z,58.14
2023-03-06T10:36:19.118Z,58.22
2023-03-06T10:38:47.914Z,57.35
2023-03-06T10:41:30.545Z,57.13
2023-03-06T10:44:01.195Z,57.81
2023-03-06T10:46:30.325Z,56.88
2023-03-06T10:49:06.629Z,56.88
2023-03-06T10:51:34.449Z,56.23
2023-03-06T10:54:19.689Z,56.66
2023-03-06T10:56:47.549Z,54.50
2023-03-06T10:59:16.548Z,52.44
2023-03-06T11:01:50.480Z,51.50
2023-03-06T11:04:23.460Z,49.09
2023-03-06T11:07:21.902Z,47.74
2023-03-06T11:09:58.390Z,46.35
2023-03-06T11:12:39.382Z,46.79
2023-03-06T11:15:08.290Z,47.64
2023-03-06T11:18:07.491Z,48.83
2023-03-06T11:20:55.526Z,46.61
2023-03-06T11:23:40.745Z,46.36
2023-03-06T11:26:17.458Z,45.71
2023-03-06T11:28:45.056Z,45.75
2023-03-06T11:31:18.079Z,45.32
2023-03-06T11:33:54.134Z,44.09
2023-03-06T11:36:25.260Z,46.78
2023-03-06T11:38:54.320Z,47.41
2023-03-06T11:41:30.943Z,48.63
2023-03-06T11:44:12.529Z,47.90
2023-03-06T11:46:45.088Z,48.81
2023-03-06T11:49:33.331Z,50.56
2023-03-06T11:52:09.961Z,51.20
2023-03-06T11:54:37.527Z,50.01
2023-03-06T11:57:14.574Z,48.57
2023-03-06T11:59:42.071Z,48.80
2023-03-06T12:02:28.000Z,50.12
2023-03-06T12:05:33.620Z,50.73
2023-03-06T12:08:19.838Z,51.01
2023-03-06T12:10:52.433Z,51.15
2023-03-06T12:13:30.605Z,51.55
2023-03-06T12:16:36.045Z,51.50
2023-03-06T12:19:25.521Z,52.48
2023-03-06T12:22:22.262Z,50.62
2023-03-06T12:25:22.192Z,51.41
2023-03-06T12:27:56.196Z,51.92
2023-03-06T12:30:40.559Z,53.37
2023-03-06T12:33:23.003Z,52.45
2023-03-06T12:35:55.600Z,53.26
2023-03-06T12:38:47.264Z,53.37
2023-03-06T12:41:42.733Z,53.29
2023-03-06T12:44:27.049Z,52.91
2023-03-06T12:46:59.459Z,53.99
2023-03-06T12:49:32.843Z,52.80
2023-03-06T12:52:02.058Z,51.35
2023-03-06T12:54:32.286Z,51.70
2023-03-06T12:57:00.662Z,51.68
2023-03-06T12:59:38.470Z,50.11
2023-03-06T13:02:25.073Z,49.82
2023-03-06T13:05:04.647Z,50.36
2023-03-06T13:07:50.739Z,50.97
2023-03-06T13:10:32.868Z,48.83
2023-03-06T13:13:00.355Z,47.43
2023-03-06T13:15:41.792Z,46.65
2023-03-06T13:18:21.404Z,45.29
2023-03-06T13:20:50.769Z,43.00
2023-03-06T13:23:30.623Z,42.15
2023-03-06T13:26:00.501Z,40.68
2023-03-06T13:28:47.460Z,38.27
2023-03-06T13:31:28.296Z,37.87
2023-03-06T13:34:04.051Z,38.61
2023-03-06T13:36:39.450Z,39.24
2023-03-06T13:39:09.325Z,38.23
2023-03-06T13:41:41.646Z,38.91
2023-03-06T13:44:24.514Z,40.51
2023-03-06T13:47:06.500Z,41.21
2023-03-06T13:49:35.183Z,42.58
2023-03-06T13:52:02.660Z,43.11
2023-03-06T13:54:42.283Z,43.91
2023-03-06T13:57:30.972Z,45.02
2023-03-06T14:00:34.501Z,44.80
2023-03-06T14:03:21.071Z,45.04
2023-03-06T14:05:50.786Z,45.18
2023-03-06T14:08:32.980Z,46.16
2023-03-06T14:11:20.507Z,46.05
2023-03-06T14:13:56.654Z,46.36
2023-03-06T14:16:40.484Z,46.77
2023-03-06T14:19:17.287Z,47.21
2023-03-06T14:21:44.793Z,47.90
2023-03-06T14:24:18.231Z,48.13
2023-03-06T14:26:51.860Z,47.17
2023-03-06T14:29:22.196Z,47.00
2023-03-06T14:31:52.646Z,47.25
2023-03-06T14:34:24.369Z,47.57
2023-03-06T14:36:54.845Z,48.11
2023-03-06T14:39:31.738Z,48.82
2023-03-06T14:42:17.479Z,49.31
2023-03-06T14:44:45.994Z,50.27
2023-03-06T14:47:25.201Z,50.94
2023-03-06T14:50:17.483Z,51.29
2023-03-06T14:52:45.815Z,54.25
2023-03-06T14:55:23.144Z,57.34
2023-03-06T14:58:16.452Z,58.85
2023-03-06T15:00:48.630Z,60.00
2023-03-06T15:03:34.209Z,61.43
2023-03-06T15:06:02.970Z,62.37
2023-03-06T15:08:33.292Z,62.07
2023-03-06T15:11:06.352Z,61.78
2023-03-06T15:13:34.381Z,61.17
2023-03-06T15:16:04.502Z,61.23
2023-03-06T15:18:54.176Z,61.50
2023-03-06T15:21:23.925Z,61.67
2023-03-06T15:23:53.751Z,61.76
2023-03-06T15:26:37.107Z,61.45
2023-03-06T15:29:11.109Z,61.78
2023-03-06T15:31:44.525Z,61.89
2023-03-06T15:34:12.040Z,62.16
2023-03-06T15:36:46.821Z,62.14
2023-03-06T15:39:32.676Z,62.84
2023-03-06T15:42:14.572Z,63.16
2023-03-06T15:44:42.610Z,63.52
2023-03-06T15:47:13.265Z,65.02
2023-03-06T15:49:40.831Z,69.21
2023-03-06T15:52:09.166Z,72.33
2023-03-06T15:54:36.920Z,73.14
2023-03-06T15:57:06.880Z,74.56
2023-03-06T15:59:41.712Z,76.70
2023-03-06T16:02:16.613Z,77.43
2023-03-06T16:04:45.337Z,77.71
2023-03-06T16:07:13.360Z,77.88
2023-03-06T16:09:42.181Z,77.88
2023-03-06T16:12:18.715Z,78.03
2023-03-06T16:14:47.542Z,78.20
2023-03-06T16:17:15.965Z,77.94
2023-03-06T16:19:44.046Z,78.37
2023-03-06T16:22:11.936Z,78.44
2023-03-06T16:24:39.534Z,78.26
2023-03-06T16:27:07.231Z,78.24
2023-03-06T16:29:34.781Z,78.92
2023-03-06T16:32:02.565Z,79.26
2023-03-06T16:34:30.261Z,79.29
2023-03-06T16:36:57.856Z,79.77
2023-03-06T16:39:25.447Z,80.05
2023-03-06T16:41:53.288Z,80.40
2023-03-06T16:44:21.180Z,80.16
2023-03-06T16:46:50.084Z,80.41
2023-03-06T16:49:21.500Z,80.30
2023-03-06T16:51:49.589Z,80.31
2023-03-06T16:54:17.862Z,80.15
2023-03-06T16:56:46.096Z,80.61
2023-03-06T16:59:13.668Z,80.61
2023-03-06T17:01:41.884Z,81.13
2023-03-06T17:04:09.719Z,81.69
2023-03-06T17:06:37.373Z,81.90
2023-03-06T17:09:05.282Z,81.84
2023-03-06T17:11:33.046Z,82.15
2023-03-06T17:14:01.732Z,81.84
2023-03-06T17:16:29.354Z,81.69
2023-03-06T17:18:57.204Z,82.09
2023-03-06T17:21:25.214Z,82.32
2023-03-06T17:23:52.764Z,82.16
2023-03-06T17:26:20.335Z,82.82
2023-03-06T17:28:48.374Z,83.31
2023-03-06T17:31:22.261Z,83.64
2023-03-06T17:33:50.634Z,84.34
2023-03-06T17:36:18.422Z,84.33
2023-03-06T17:38:46.304Z,84.75
2023-03-06T17:41:14.549Z,85.10
2023-03-06T17:43:42.223Z,85.46
2023-03-06T17:46:12.574Z,85.49
2023-03-06T17:48:40.432Z,85.43
2023-03-06T17:51:08.707Z,85.62
2023-03-06T17:53:36.566Z,85.80
2023-03-06T17:56:09.571Z,86.07
2023-03-06T17:58:37.102Z,86.33
2023-03-06T18:01:19.846Z,86.49
2023-03-06T18:03:49.944Z,86.62
2023-03-06T18:06:18.293Z,86.68
2023-03-06T18:08:46.013Z,86.51
2023-03-06T18:11:14.347Z,87.07
2023-03-06T18:13:44.446Z,86.89
2023-03-06T18:16:13.806Z,87.19
2023-03-06T18:18:41.573Z,86.93
2023-03-06T18:21:12.279Z,87.34
2023-03-06T18:23:41.552Z,87.63
2023-03-06T18:26:18.391Z,87.67
2023-03-06T18:28:48.936Z,87.98
2023-03-06T18:31:19.362Z,88.22
2023-03-06T18:33:48.563Z,88.10
2023-03-06T18:36:16.592Z,88.84
2023-03-06T18:38:44.679Z,88.82
2023-03-06T18:41:13.657Z,88.85
2023-03-06T18:43:41.258Z,89.04
2023-03-06T18:46:09.494Z,89.30
2023-03-06T18:48:37.359Z,88.88
2023-03-06T18:51:06.598Z,89.42
2023-03-06T18:53:35.318Z,89.62
2023-03-06T18:56:04.728Z,89.37
2023-03-06T18:58:32.709Z,89.89
2023-03-06T19:01:08.533Z,89.69
2023-03-06T19:03:36.512Z,89.34
2023-03-06T19:06:10.429Z,89.13
2023-03-06T19:08:39.542Z,89.22
2023-03-06T19:11:09.950Z,89.33
2023-03-06T19:13:37.560Z,89.07
2023-03-06T19:16:06.365Z,88.88
2023-03-06T19:18:34.347Z,88.75
2023-03-06T19:21:14.039Z,88.57
2023-03-06T19:23:42.399Z,88.52
2023-03-06T19:26:11.039Z,88.40
2023-03-06T19:28:40.392Z,88.22
2023-03-06T19:31:14.341Z,88.24
2023-03-06T19:33:43.079Z,88.22
2023-03-06T19:36:13.493Z,88.26
2023-03-06T19:38:41.871Z,88.58
2023-03-06T19:41:13.956Z,88.82
2023-03-06T19:43:42.763Z,88.92
2023-03-06T19:46:12.296Z,88.91
2023-03-06T19:48:41.335Z,89.10
2023-03-06T19:51:09.787Z,89.05
2023-03-06T19:53:37.880Z,89.20
2023-03-06T19:56:15.758Z,89.25
2023-03-06T19:58:43.440Z,89.49
2023-03-06T20:01:19.580Z,89.51
2023-03-06T20:03:47.232Z,89.55
2023-03-06T20:06:19.683Z,89.46
2023-03-06T20:08:47.660Z,89.61
2023-03-06T20:11:18.123Z,89.38
2023-03-06T20:13:47.306Z,89.20
2023-03-06T20:16:17.238Z,89.11
2023-03-06T20:18:45.460Z,88.75
2023-03-06T20:21:16.404Z,88.82
2023-03-06T20:23:44.048Z,88.75
2023-03-06T20:26:13.291Z,88.56
2023-03-06T20:28:42.826Z,88.51
2023-03-06T20:31:13.880Z,88.45
2023-03-06T20:33:41.669Z,88.40
2023-03-06T20:36:19.484Z,88.43
2023-03-06T20:38:47.327Z,88.54
2023-03-06T20:41:21.618Z,88.53
2023-03-06T20:43:49.978Z,88.75
2023-03-06T20:46:19.114Z,88.69
2023-03-06T20:48:51.597Z,88.40
2023-03-06T20:51:20.713Z,88.14
2023-03-06T20:53:49.981Z,87.80
2023-03-06T20:56:19.886Z,87.68
2023-03-06T20:58:47.454Z,87.58
2023-03-06T21:01:23.387Z,87.59
2023-03-06T21:03:51.513Z,87.54
2023-03-06T21:06:19.975Z,87.36
2023-03-06T21:08:47.536Z,87.28
2023-03-06T21:11:15.908Z,87.26
2023-03-06T21:13:44.173Z,87.02
2023-03-06T21:16:18.618Z,87.07
2023-03-06T21:18:46.761Z,86.94
2023-03-06T21:21:18.951Z,86.96
2023-03-06T21:23:47.782Z,87.01
2023-03-06T21:26:21.042Z,87.15
2023-03-06T21:28:49.146Z,87.21
2023-03-06T21:31:18.650Z,87.19
2023-03-06T21:33:47.789Z,87.31
2023-03-06T21:36:15.737Z,87.39
2023-03-06T21:38:43.410Z,87.25
2023-03-06T21:41:14.293Z,87.53
2023-03-06T21:43:42.180Z,87.80
2023-03-06T21:46:10.512Z,87.88
2023-03-06T21:48:38.554Z,87.53
2023-03-06T21:51:12.614Z,87.55
2023-03-06T21:53:44.062Z,87.72
2023-03-06T21:56:12.795Z,87.81
2023-03-06T21:58:40.442Z,87.62
2023-03-06T22:01:09.755Z,87.83
2023-03-06T22:03:37.494Z,87.95
2023-03-06T22:06:16.817Z,87.71
2023-03-06T22:08:45.036Z,87.76
2023-03-06T22:11:15.210Z,87.71
2023-03-06T22:13:43.459Z,87.71
2023-03-06T22:16:11.522Z,87.83
2023-03-06T22:18:39.593Z,87.72
2023-03-06T22:21:09.287Z,87.83
2023-03-06T22:23:36.838Z,87.79
2023-03-06T22:26:06.596Z,87.75
2023-03-06T22:28:34.252Z,87.73
2023-03-06T22:31:07.182Z,87.99
2023-03-06T22:33:35.479Z,88.15
2023-03-06T22:36:08.980Z,88.18
2023-03-06T22:38:39.689Z,88.07
2023-03-06T22:41:08.352Z,88.27
2023-03-06T22:43:36.951Z,88.48
2023-03-06T22:46:07.684Z,88.53
2023-03-06T22:48:35.350Z,88.46
2023-03-06T22:51:05.195Z,88.64
2023-03-06T22:53:33.604Z,88.81
2023-03-06T22:56:03.600Z,89.05
2023-03-06T22:58:33.356Z,89.13
2023-03-06T23:01:12.957Z,89.36
2023-03-06T23:03:46.152Z,89.56
2023-03-06T23:06:18.573Z,89.53
2023-03-06T23:08:52.327Z,89.53
2023-03-06T23:11:21.146Z,89.45
2023-03-06T23:13:48.926Z,89.22
2023-03-06T23:16:16.520Z,88.81
2023-03-06T23:18:44.248Z,88.57
2023-03-06T23:21:16.942Z,88.67
2023-03-06T23:23:48.884Z,88.74
2023-03-06T23:26:18.147Z,88.88
2023-03-06T23:28:45.770Z,89.05
2023-03-06T23:31:19.737Z,88.78
2023-03-06T23:33:47.357Z,88.69
2023-03-06T23:36:16.726Z,88.69
2023-03-06T23:38:44.692Z,88.43
2023-03-06T23:41:14.625Z,88.69
2023-03-06T23:43:42.743Z,88.79
2023-03-06T23:46:11.008Z,88.80
2023-03-06T23:48:39.852Z,88.80
2023-03-06T23:51:19.596Z,88.71
2023-03-06T23:53:48.369Z,88.85
2023-03-06T23:56:15.955Z,88.91
2023-03-06T23:58:43.761Z,88.83
